createdAt,value
2023-04-29T04:58:27.228Z,28.73
2023-04-29T05:00:55.632Z,26.10
2023-04-29T05:03:23.632Z,30.13
2023-04-29T05:05:58.759Z,25.90
2023-04-29T05:08:27.074Z,28.70
2023-04-29T05:10:58.332Z,28.33
2023-04-29T05:13:26.945Z,26.33
2023-04-29T05:15:55.344Z,28.70
2023-04-29T05:18:27.142Z,36.50
2023-04-29T05:20:55.037Z,33.23
2023-04-29T05:23:23.299Z,25.73
2023-04-29T05:25:51.895Z,31.80
2023-04-29T05:28:19.513Z,32.17
2023-04-29T05:30:48.440Z,24.77
2023-04-29T05:33:16.101Z,24.83
2023-04-29T05:35:44.949Z,26.20
2023-04-29T05:38:12.638Z,25.77
2023-04-29T05:40:42.591Z,32.43
2023-04-29T05:43:30.632Z,25.67
2023-04-29T05:45:59.976Z,28.43
2023-04-29T05:48:28.645Z,25.57
2023-04-29T05:50:57.085Z,25.37
2023-04-29T05:53:25.621Z,26.37
2023-04-29T05:55:54.396Z,24.70
2023-04-29T05:58:22.792Z,25.77
2023-04-29T06:00:51.201Z,24.57
2023-04-29T06:03:25.964Z,25.20
2023-04-29T06:06:06.926Z,22.87
2023-04-29T06:08:41.974Z,24.73
2023-04-29T06:11:23.613Z,19.20
2023-04-29T06:13:51.516Z,22.57
2023-04-29T06:16:19.776Z,22.23
2023-04-29T06:18:48.095Z,18.97
2023-04-29T06:21:16.405Z,20.10
2023-04-29T06:23:44.004Z,22.70
2023-04-29T06:26:17.195Z,24.37
2023-04-29T06:28:45.509Z,17.93
2023-04-29T06:31:13.830Z,20.83
2023-04-29T06:33:42.860Z,21.90
2023-04-29T06:36:10.912Z,19.43
2023-04-29T06:39:10.728Z,20.63
2023-04-29T06:42:04.463Z,15.40
2023-04-29T06:44:47.617Z,17.27
2023-04-29T06:47:33.816Z,18.52
2023-04-29T06:50:15.236Z,16.88
2023-04-29T06:52:44.638Z,16.92
2023-04-29T06:55:12.640Z,19.30
2023-04-29T06:57:43.831Z,18.52
2023-04-29T07:00:11.760Z,12.15
2023-04-29T07:02:39.884Z,26.20
2023-04-29T07:05:07.928Z,29.40
2023-04-29T07:07:36.696Z,21.38
2023-04-29T07:10:04.263Z,18.70
2023-04-29T07:12:32.327Z,17.70
2023-04-29T07:15:00.095Z,16.23
2023-04-29T07:17:30.321Z,20.63
2023-04-29T07:19:58.004Z,18.15
2023-04-29T07:22:26.254Z,21.95
2023-04-29T07:24:57.292Z,21.50
2023-04-29T07:27:25.941Z,19.35
2023-04-29T07:29:53.523Z,17.02
2023-04-29T07:32:21.376Z,16.38
2023-04-29T07:34:49.452Z,21.73
2023-04-29T07:37:17.237Z,24.23
2023-04-29T07:39:44.885Z,15.20
2023-04-29T07:42:13.480Z,23.50
2023-04-29T07:44:42.146Z,27.27
2023-04-29T07:47:09.844Z,28.13
2023-04-29T07:49:37.596Z,21.60
2023-04-29T07:52:06.404Z,19.40
2023-04-29T07:54:34.168Z,23.02
2023-04-29T07:57:03.761Z,18.45
2023-04-29T07:59:32.160Z,25.80
2023-04-29T08:01:59.901Z,20.88
2023-04-29T08:04:28.074Z,25.75
2023-04-29T08:07:07.102Z,18.20
2023-04-29T08:09:36.953Z,14.55
2023-04-29T08:12:05.714Z,18.95
2023-04-29T08:14:32.979Z,24.77
2023-04-29T08:17:01.007Z,16.60
2023-04-29T08:19:28.525Z,17.52
2023-04-29T08:21:56.300Z,21.20
2023-04-29T08:24:23.949Z,16.50
2023-04-29T08:26:52.560Z,18.10
2023-04-29T08:29:20.758Z,20.90
2023-04-29T08:31:48.817Z,22.63
2023-04-29T08:34:16.494Z,21.10
2023-04-29T08:36:44.634Z,17.23
2023-04-29T08:39:13.010Z,17.53
2023-04-29T08:41:40.859Z,26.07
2023-04-29T08:44:08.106Z,18.67
2023-04-29T08:46:36.474Z,21.03
2023-04-29T08:49:04.542Z,19.40
2023-04-29T08:51:33.338Z,20.30
2023-04-29T08:54:01.026Z,24.40
2023-04-29T08:56:31.087Z,26.27
2023-04-29T08:58:59.271Z,23.73
2023-04-29T09:01:29.027Z,19.97
2023-04-29T09:04:17.943Z,27.95
2023-04-29T09:06:46.925Z,21.67
2023-04-29T09:09:15.456Z,26.07
2023-04-29T09:11:42.872Z,25.47
2023-04-29T09:14:10.043Z,18.83
2023-04-29T09:16:39.059Z,22.65
2023-04-29T09:19:06.322Z,25.63
2023-04-29T09:21:34.094Z,20.95
2023-04-29T09:24:03.012Z,27.95
2023-04-29T09:26:42.547Z,24.70
2023-04-29T09:29:14.511Z,23.00
2023-04-29T09:31:44.144Z,29.05
2023-04-29T09:34:12.599Z,27.40
2023-04-29T09:36:46.857Z,21.65
2023-04-29T09:39:21.225Z,23.73
2023-04-29T09:41:54.631Z,26.80
2023-04-29T09:44:23.857Z,25.90
2023-04-29T09:47:11.548Z,23.83
2023-04-29T09:49:42.164Z,28.92
2023-04-29T09:52:11.848Z,21.83
2023-04-29T09:54:41.231Z,27.93
2023-04-29T09:57:10.491Z,23.80
2023-04-29T09:59:40.484Z,24.50
2023-04-29T10:02:16.271Z,24.97
2023-04-29T10:04:47.178Z,22.05
2023-04-29T10:07:17.273Z,24.73
2023-04-29T10:09:47.653Z,21.10
2023-04-29T10:12:21.297Z,22.98
2023-04-29T10:14:55.617Z,24.45
2023-04-29T10:17:46.128Z,22.15
2023-04-29T10:20:22.979Z,23.33
2023-04-29T10:22:52.694Z,25.48
2023-04-29T10:25:21.525Z,23.63
2023-04-29T10:27:52.067Z,24.55
2023-04-29T10:30:20.753Z,21.70
2023-04-29T10:32:52.076Z,20.00
2023-04-29T10:35:23.762Z,22.08
2023-04-29T10:37:53.569Z,23.08
2023-04-29T10:40:40.307Z,18.73
2023-04-29T10:43:08.781Z,20.80
2023-04-29T10:45:36.614Z,19.05
2023-04-29T10:48:08.852Z,22.33
2023-04-29T10:50:48.918Z,24.52
2023-04-29T10:53:22.549Z,20.02
2023-04-29T10:55:58.915Z,18.88
2023-04-29T10:58:46.650Z,19.50
2023-04-29T11:01:16.796Z,20.05
2023-04-29T11:03:48.758Z,23.73
2023-04-29T11:06:25.630Z,21.08
2023-04-29T11:09:03.862Z,18.20
2023-04-29T11:11:44.711Z,18.40
2023-04-29T11:14:14.454Z,22.17
2023-04-29T11:16:51.706Z,20.50
2023-04-29T11:19:19.856Z,22.38
2023-04-29T11:21:48.996Z,20.67
2023-04-29T11:24:17.862Z,17.38
2023-04-29T11:26:48.393Z,18.42
2023-04-29T11:29:21.840Z,16.98
2023-04-29T11:32:02.019Z,16.27
2023-04-29T11:34:32.036Z,17.95
2023-04-29T11:37:00.567Z,16.25
2023-04-29T11:39:29.398Z,16.70
2023-04-29T11:42:07.678Z,20.70
2023-04-29T11:44:38.983Z,18.27
2023-04-29T11:47:12.243Z,17.33
2023-04-29T11:49:40.083Z,18.15
2023-04-29T11:52:08.372Z,18.45
2023-04-29T11:54:36.630Z,12.95
2023-04-29T11:57:05.476Z,17.90
2023-04-29T11:59:34.458Z,22.80
2023-04-29T12:02:02.145Z,15.70
2023-04-29T12:04:32.812Z,16.83
2023-04-29T12:07:03.279Z,16.75
2023-04-29T12:09:43.398Z,16.08
2023-04-29T12:12:12.284Z,18.95
2023-04-29T12:14:42.446Z,24.08
2023-04-29T12:17:11.081Z,21.42
2023-04-29T12:19:40.514Z,17.17
2023-04-29T12:22:09.309Z,16.88
2023-04-29T12:24:41.332Z,17.83
2023-04-29T12:27:11.849Z,20.65
2023-04-29T12:29:43.550Z,19.60
2023-04-29T12:32:18.084Z,22.75
2023-04-29T12:34:47.874Z,18.90
2023-04-29T12:37:16.215Z,33.67
2023-04-29T12:39:46.514Z,22.52
2023-04-29T12:42:17.907Z,18.15
2023-04-29T12:44:49.706Z,18.48
2023-04-29T12:47:17.737Z,20.20
2023-04-29T12:49:47.305Z,17.00
2023-04-29T12:52:14.867Z,14.77
2023-04-29T12:54:44.145Z,17.45
2023-04-29T12:57:12.607Z,11.88
2023-04-29T12:59:43.601Z,17.05
2023-04-29T13:02:11.143Z,14.13
2023-04-29T13:04:40.116Z,16.00
2023-04-29T13:07:07.900Z,15.40
2023-04-29T13:09:38.276Z,16.08
2023-04-29T13:12:09.696Z,14.45
2023-04-29T13:14:37.592Z,14.38
2023-04-29T13:17:05.192Z,12.50
2023-04-29T13:19:48.178Z,13.77
2023-04-29T13:22:19.101Z,12.30
2023-04-29T13:24:47.124Z,10.52
2023-04-29T13:27:14.728Z,10.85
2023-04-29T13:29:42.820Z,9.43
2023-04-29T13:32:10.340Z,9.45
2023-04-29T13:34:38.243Z,11.35
2023-04-29T13:37:05.871Z,10.98
2023-04-29T13:39:37.891Z,11.00
2023-04-29T13:42:06.418Z,14.48
2023-04-29T13:45:00.306Z,14.80
2023-04-29T13:47:26.036Z,15.55
2023-04-29T13:50:32.854Z,13.48
2023-04-29T14:00:31.537Z,12.35
2023-04-29T14:03:02.356Z,12.60
2023-04-29T14:05:30.178Z,14.15
2023-04-29T14:07:57.648Z,10.77
2023-04-29T14:10:25.188Z,11.13
2023-04-29T14:12:52.367Z,16.52
2023-04-29T14:15:19.779Z,10.93
2023-04-29T14:17:47.119Z,11.52
2023-04-29T14:20:15.050Z,10.07
2023-04-29T14:22:42.259Z,11.73
2023-04-29T14:25:10.174Z,12.85
2023-04-29T14:27:37.630Z,10.38
2023-04-29T14:30:06.154Z,15.35
2023-04-29T14:32:34.282Z,14.18
2023-04-29T14:35:01.879Z,12.27
2023-04-29T14:37:29.246Z,9.88
2023-04-29T14:39:56.821Z,11.63
2023-04-29T14:42:24.741Z,17.65
2023-04-29T14:44:52.865Z,14.27
2023-04-29T14:47:20.519Z,11.75
2023-04-29T14:49:48.075Z,10.45
2023-04-29T14:52:15.435Z,10.60
2023-04-29T14:54:43.070Z,11.18
2023-04-29T14:57:10.907Z,17.50
2023-04-29T14:59:38.676Z,12.23
2023-04-29T15:02:06.168Z,11.68
2023-04-29T15:04:34.264Z,11.45
2023-04-29T15:07:02.370Z,15.52
2023-04-29T15:09:29.874Z,20.98
2023-04-29T15:11:57.254Z,14.25
2023-04-29T15:14:24.674Z,11.90
2023-04-29T15:16:51.931Z,15.40
2023-04-29T15:19:20.362Z,10.65
2023-04-29T15:21:47.496Z,11.70
2023-04-29T15:24:15.122Z,15.80
2023-04-29T15:26:42.717Z,14.52
2023-04-29T15:29:11.719Z,14.80
2023-04-29T15:31:39.413Z,13.68
2023-04-29T15:34:06.896Z,12.32
2023-04-29T15:36:34.783Z,13.57
2023-04-29T15:39:02.392Z,15.98
2023-04-29T15:41:29.784Z,11.45
2023-04-29T15:43:57.780Z,13.85
2023-04-29T15:46:25.102Z,18.15
2023-04-29T15:48:52.742Z,11.93
2023-04-29T15:51:20.169Z,10.82
2023-04-29T15:53:48.130Z,12.07
2023-04-29T15:56:15.450Z,13.63
2023-04-29T15:58:43.206Z,25.13
2023-04-29T16:01:10.439Z,17.50
2023-04-29T16:03:38.058Z,16.92
2023-04-29T16:06:05.508Z,16.13
2023-04-29T16:08:33.175Z,14.63
2023-04-29T16:11:00.432Z,14.52
2023-04-29T16:13:27.832Z,18.40
2023-04-29T16:15:55.487Z,17.05
2023-04-29T16:18:23.217Z,23.42
2023-04-29T16:20:52.243Z,18.40
2023-04-29T16:23:19.733Z,18.52
2023-04-29T16:25:47.089Z,16.77
2023-04-29T16:28:14.666Z,17.25
2023-04-29T16:30:41.850Z,22.38
2023-04-29T16:33:09.454Z,17.33
2023-04-29T16:35:37.284Z,16.75
2023-04-29T16:38:04.881Z,22.92
2023-04-29T16:40:32.157Z,16.90
2023-04-29T16:42:59.725Z,17.52
2023-04-29T16:45:27.285Z,16.95
2023-04-29T16:47:55.028Z,17.60
2023-04-29T16:50:22.360Z,17.48
2023-04-29T16:52:49.843Z,17.75
2023-04-29T16:55:17.303Z,11.82
2023-04-29T16:57:44.762Z,15.55
2023-04-29T17:00:12.396Z,15.23
2023-04-29T17:02:40.646Z,13.05
2023-04-29T17:05:09.168Z,12.52
2023-04-29T17:07:36.982Z,16.48
2023-04-29T17:10:05.275Z,13.63
2023-04-29T17:12:33.450Z,13.70
2023-04-29T17:15:01.266Z,17.42
2023-04-29T17:17:29.163Z,22.70
2023-04-29T17:19:56.749Z,19.25
2023-04-29T17:22:24.525Z,16.05
2023-04-29T17:24:52.276Z,18.00
2023-04-29T17:27:19.866Z,17.27
2023-04-29T17:29:47.122Z,16.38
2023-04-29T17:32:17.446Z,15.73
2023-04-29T17:34:44.803Z,14.38
2023-04-29T17:37:12.451Z,16.02
2023-04-29T17:39:39.772Z,58.50
2023-04-29T17:42:07.622Z,46.78
2023-04-29T17:44:36.949Z,49.28
2023-04-29T17:47:04.391Z,42.60
2023-04-29T17:49:31.663Z,67.80
2023-04-29T17:52:00.503Z,71.88
2023-04-29T17:54:29.326Z,51.20
2023-04-29T17:56:57.211Z,43.60
2023-04-29T17:59:25.077Z,37.95
2023-04-29T18:01:52.973Z,43.33
2023-04-29T18:04:20.232Z,43.00
2023-04-29T18:06:48.026Z,38.97
2023-04-29T18:09:15.246Z,39.70
2023-04-29T18:11:42.769Z,31.42
2023-04-29T18:14:10.293Z,32.45
2023-04-29T18:16:38.213Z,39.10
2023-04-29T18:19:05.567Z,46.65
2023-04-29T18:21:33.031Z,48.80
2023-04-29T18:24:00.346Z,57.40
2023-04-29T18:26:28.715Z,50.57
2023-04-29T18:28:55.891Z,57.53
2023-04-29T18:31:25.275Z,68.63
2023-04-29T18:33:52.648Z,73.40
2023-04-29T18:36:21.448Z,72.90
2023-04-29T18:38:48.877Z,97.40
2023-04-29T18:41:16.462Z,90.03
2023-04-29T18:43:43.762Z,80.33
2023-04-29T18:46:11.316Z,69.77
2023-04-29T18:48:40.654Z,61.80
2023-04-29T18:51:08.739Z,67.17
2023-04-29T18:53:35.948Z,74.20
2023-04-29T18:56:03.569Z,69.47
2023-04-29T18:58:30.797Z,67.07
2023-04-29T19:01:00.290Z,59.10
2023-04-29T19:03:27.732Z,60.23
2023-04-29T19:05:55.173Z,71.03
2023-04-29T19:08:22.515Z,70.23
2023-04-29T19:10:50.916Z,83.27
2023-04-29T19:13:18.593Z,107.40
2023-04-29T19:15:50.741Z,73.37
2023-04-29T19:18:20.348Z,74.50
2023-04-29T19:20:49.038Z,84.67
2023-04-29T19:23:17.075Z,92.40
2023-04-29T19:25:44.742Z,79.13
2023-04-29T19:28:12.090Z,96.90
2023-04-29T19:30:39.648Z,94.90
2023-04-29T19:33:07.071Z,87.27
2023-04-29T19:35:34.761Z,83.80
2023-04-29T19:38:02.620Z,82.03
2023-04-29T19:40:30.160Z,82.40
2023-04-29T19:42:57.678Z,82.13
2023-04-29T19:45:26.525Z,69.23
2023-04-29T19:47:55.094Z,69.97
2023-04-29T19:50:23.042Z,67.20
2023-04-29T19:52:50.683Z,101.03
2023-04-29T19:55:18.759Z,75.30
2023-04-29T19:57:46.248Z,91.87
2023-04-29T20:00:14.943Z,73.93
2023-04-29T20:02:42.701Z,63.93
2023-04-29T20:05:11.746Z,67.67
2023-04-29T20:07:39.584Z,76.47
2023-04-29T20:10:08.100Z,79.50
2023-04-29T20:12:36.071Z,63.47
2023-04-29T20:15:06.070Z,59.03
2023-04-29T20:17:33.732Z,51.00
2023-04-29T20:20:02.042Z,50.80
2023-04-29T20:22:29.785Z,58.30
2023-04-29T20:24:58.114Z,58.60
2023-04-29T20:27:25.669Z,54.43
2023-04-29T20:29:53.724Z,53.23
2023-04-29T20:32:22.014Z,56.20
2023-04-29T20:34:50.429Z,46.33
2023-04-29T20:37:20.035Z,55.80
2023-04-29T20:39:49.183Z,55.17
2023-04-29T20:42:17.176Z,55.13
2023-04-29T20:44:45.280Z,54.83
2023-04-29T20:47:12.746Z,57.53
2023-04-29T20:49:40.530Z,59.53
2023-04-29T20:52:08.071Z,58.27
2023-04-29T20:54:35.968Z,53.17
2023-04-29T20:57:06.334Z,60.20
2023-04-29T20:59:34.297Z,59.97
2023-04-29T21:02:02.237Z,51.07
2023-04-29T21:04:30.330Z,46.97
2023-04-29T21:06:58.029Z,40.50
2023-04-29T21:09:26.156Z,41.60
2023-04-29T21:11:53.704Z,42.03
2023-04-29T21:14:21.890Z,32.07
2023-04-29T21:16:49.480Z,36.70
2023-04-29T21:19:17.349Z,37.37
2023-04-29T21:21:45.014Z,38.50
2023-04-29T21:24:12.987Z,42.13
2023-04-29T21:26:40.267Z,35.83
2023-04-29T21:29:08.435Z,41.93
2023-04-29T21:31:35.937Z,36.53
2023-04-29T21:34:04.024Z,34.57
2023-04-29T21:36:32.247Z,28.60
2023-04-29T21:39:00.138Z,29.30
2023-04-29T21:41:31.979Z,28.83
2023-04-29T21:44:02.763Z,28.47
2023-04-29T21:46:33.612Z,38.00
2023-04-29T21:49:02.496Z,37.47
2023-04-29T21:51:30.248Z,34.13
2023-04-29T21:54:00.356Z,39.87
2023-04-29T21:56:27.803Z,41.37
2023-04-29T21:58:55.674Z,37.80
2023-04-29T22:01:27.449Z,38.33
2023-04-29T22:03:58.456Z,39.50
2023-04-29T22:06:26.062Z,35.53
2023-04-29T22:08:54.232Z,43.47
2023-04-29T22:11:22.307Z,34.73
2023-04-29T22:13:49.968Z,33.10
2023-04-29T22:16:19.061Z,33.33
2023-04-29T22:18:46.865Z,33.67
2023-04-29T22:21:14.296Z,26.67
2023-04-29T22:23:42.651Z,25.33
2023-04-29T22:26:09.891Z,23.47
2023-04-29T22:28:37.437Z,26.77
2023-04-29T22:31:04.938Z,28.13
2023-04-29T22:33:32.795Z,28.70
2023-04-29T22:36:00.144Z,26.47
2023-04-29T22:38:27.703Z,32.47
2023-04-29T22:40:55.020Z,31.07
2023-04-29T22:43:22.647Z,31.70
2023-04-29T22:45:57.058Z,35.70
2023-04-29T22:48:27.422Z,33.80
2023-04-29T22:50:56.854Z,35.67
2023-04-29T22:53:24.369Z,32.43
2023-04-29T22:55:52.481Z,35.33
2023-04-29T22:58:20.877Z,29.10
2023-04-29T23:00:54.367Z,31.87
2023-04-29T23:03:22.206Z,28.10
2023-04-29T23:05:50.241Z,34.57
2023-04-29T23:08:17.951Z,34.13
2023-04-29T23:10:51.968Z,30.77
2023-04-29T23:13:19.573Z,28.57
2023-04-29T23:15:46.876Z,27.27
2023-04-29T23:18:14.479Z,25.13
2023-04-29T23:20:41.719Z,24.33
2023-04-29T23:23:09.206Z,26.77
2023-04-29T23:25:36.394Z,29.40
2023-04-29T23:28:03.884Z,27.47
2023-04-29T23:30:32.761Z,28.27
2023-04-29T23:33:00.418Z,28.67
2023-04-29T23:35:27.743Z,27.87
2023-04-29T23:37:55.413Z,27.53
2023-04-29T23:40:22.840Z,33.43
2023-04-29T23:42:50.332Z,30.47
2023-04-29T23:45:17.616Z,31.63
2023-04-29T23:47:45.077Z,32.60
2023-04-29T23:50:12.358Z,30.33
2023-04-29T23:52:39.974Z,26.47
2023-04-29T23:55:07.790Z,22.90
2023-04-29T23:57:35.227Z,23.33
